Time;durP1;ratioP1;P1;durP2;ratioP2;P2;SDS_P1;SDS_P2;PMS_P1;PMS_P2;Temp;Humidity;BMP_temperature;BMP_pressure;BME280_temperature;BME280_humidity;BME280_pressure;Samples;Min_cycle;Max_cycle;Signal;HPM_P1;HPM_P2
2022/08/19 00:01:29;;;;;;;22.80;18.50;;;;;;;20.82;100.00;99388.77;1762701;81;21191;-80
2022/08/19 00:04:40;;;;;;;25.90;17.82;;;;;;;20.95;100.00;99389.72;1761867;81;21353;-81
2022/08/19 00:07:48;;;;;;;27.25;17.30;;;;;;;20.86;100.00;99392.14;1762729;81;21200;-80
2022/08/19 00:10:54;;;;;;;24.77;16.20;;;;;;;20.81;100.00;99394.05;1761205;81;21231;-81
2022/08/19 00:14:01;;;;;;;21.27;16.12;;;;;;;20.74;100.00;99389.25;1761229;81;21227;-80
2022/08/19 00:17:09;;;;;;;17.40;14.90;;;;;;;20.72;100.00;99397.03;1762747;81;21188;-80
2022/08/19 00:20:17;;;;;;;20.50;16.00;;;;;;;20.62;100.00;99399.17;1761405;81;21216;-80
2022/08/19 00:23:23;;;;;;;21.93;17.37;;;;;;;20.60;100.00;99401.36;1761284;81;21204;-80
2022/08/19 00:26:28;;;;;;;22.27;17.67;;;;;;;20.63;100.00;99393.34;1756786;81;21228;-80
2022/08/19 00:29:34;;;;;;;21.23;16.85;;;;;;;20.56;100.00;99401.07;1748187;82;21595;-80
2022/08/19 00:32:41;;;;;;;20.35;15.78;;;;;;;20.53;100.00;99392.42;1747954;82;21212;-80
2022/08/19 00:35:48;;;;;;;23.62;18.10;;;;;;;20.49;100.00;99392.66;1746852;82;21201;-80
2022/08/19 00:38:53;;;;;;;23.38;19.00;;;;;;;20.49;100.00;99399.59;1746706;82;21236;-80
2022/08/19 00:42:00;;;;;;;24.60;19.05;;;;;;;20.42;100.00;99402.58;1748224;82;21196;-80
2022/08/19 00:45:06;;;;;;;23.00;18.50;;;;;;;20.29;100.00;99397.44;1748204;82;21193;-81
2022/08/19 00:48:12;;;;;;;21.37;17.95;;;;;;;20.38;100.00;99391.70;1748277;82;21192;-80
2022/08/19 00:51:18;;;;;;;21.15;18.07;;;;;;;20.32;100.00;99395.50;1748294;82;21200;-80
2022/08/19 00:54:25;;;;;;;21.23;17.62;;;;;;;20.25;100.00;99394.89;1746849;82;21232;-81
2022/08/19 00:57:44;;;;;;;25.20;18.02;;;;;;;20.20;100.00;99390.67;1748207;82;21130;-80
2022/08/19 01:00:48;;;;;;;25.75;18.17;;;;;;;20.32;100.00;99387.17;1746900;82;21200;-81
2022/08/19 01:03:54;;;;;;;24.45;18.17;;;;;;;20.20;100.00;99388.73;1747320;82;21255;-80
2022/08/19 01:07:00;;;;;;;30.02;18.37;;;;;;;20.18;100.00;99382.59;1748205;82;21188;-80
2022/08/19 01:10:10;;;;;;;23.95;18.12;;;;;;;20.15;100.00;99384.52;1747905;81;21275;-80
2022/08/19 01:13:16;;;;;;;22.40;16.67;;;;;;;20.22;100.00;99378.74;1748068;82;21228;-81
2022/08/19 01:16:23;;;;;;;26.55;18.12;;;;;;;19.99;100.00;99380.72;1748123;82;21200;-80
2022/08/19 01:19:38;;;;;;;20.00;17.77;;;;;;;19.83;100.00;99380.27;1728756;82;21774;-81
2022/08/19 01:23:05;;;;;;;27.05;21.33;;;;;;;19.77;100.00;99381.31;1746829;82;21185;-80
2022/08/19 01:26:10;;;;;;;32.35;21.02;;;;;;;19.84;100.00;99379.16;1747592;81;21775;-81
2022/08/19 01:29:17;;;;;;;28.32;22.75;;;;;;;19.84;100.00;99384.71;1761153;81;21556;-80
2022/08/19 01:32:23;;;;;;;27.80;22.90;;;;;;;19.76;100.00;99383.77;1762628;81;21196;-80
2022/08/19 01:35:32;;;;;;;26.87;21.02;;;;;;;19.83;100.00;99381.66;1762714;81;21798;-80
2022/08/19 01:38:37;;;;;;;32.35;23.60;;;;;;;19.82;100.00;99384.14;1762679;81;21236;-80
2022/08/19 01:41:43;;;;;;;35.85;24.95;;;;;;;19.86;100.00;99381.14;1761739;81;21271;-80
2022/08/19 01:44:50;;;;;;;34.00;26.95;;;;;;;19.83;100.00;99377.49;1761796;81;21247;-80
2022/08/19 01:47:57;;;;;;;32.03;25.60;;;;;;;19.88;100.00;99381.71;1762673;81;21774;-80
2022/08/19 01:51:02;;;;;;;36.70;27.80;;;;;;;19.87;100.00;99377.27;1762713;81;21196;-80
2022/08/19 01:54:09;;;;;;;32.70;24.67;;;;;;;19.90;100.00;99382.27;1762223;81;21833;-80
2022/08/19 01:57:17;;;;;;;36.05;26.12;;;;;;;19.94;100.00;99384.83;1761556;81;22223;-80
2022/08/19 02:00:23;;;;;;;33.65;27.32;;;;;;;19.98;100.00;99384.59;1762650;81;21200;-80
2022/08/19 02:03:30;;;;;;;31.57;26.65;;;;;;;19.97;100.00;99385.70;1762680;81;21279;-80
2022/08/19 02:06:35;;;;;;;39.83;26.12;;;;;;;19.95;100.00;99379.59;1762618;81;21234;-80
2022/08/19 02:09:40;;;;;;;30.90;24.63;;;;;;;19.96;100.00;99376.27;1762773;81;21862;-80
2022/08/19 02:12:47;;;;;;;30.40;24.23;;;;;;;19.93;100.00;99387.32;1762131;81;21235;-80
2022/08/19 02:15:55;;;;;;;31.77;24.20;;;;;;;19.93;100.00;99390.64;1761263;81;21200;-80
2022/08/19 02:19:01;;;;;;;34.67;23.55;;;;;;;19.85;100.00;99390.55;1762623;81;21746;-81
2022/08/19 02:22:07;;;;;;;30.85;23.38;;;;;;;19.83;100.00;99382.48;1762636;81;21392;-80
2022/08/19 02:25:13;;;;;;;28.62;24.10;;;;;;;19.78;100.00;99383.82;1761823;81;21200;-80
2022/08/19 02:28:14;;;;;;;36.28;25.43;;;;;;;19.77;100.00;99385.48;1760051;81;21259;-80
2022/08/19 02:31:21;;;;;;;30.62;25.75;;;;;;;19.76;100.00;99389.32;1762607;81;21298;-81
2022/08/19 02:34:26;;;;;;;31.73;24.10;;;;;;;19.70;100.00;99383.43;1761169;81;21204;-80
2022/08/19 02:41:06;;;;;;;31.40;23.30;;;;;;;19.73;100.00;99381.54;1762652;81;21200;-80
2022/08/19 02:44:12;;;;;;;27.22;23.42;;;;;;;19.65;100.00;99371.17;1762367;81;21211;-80
2022/08/19 02:47:18;;;;;;;24.25;21.65;;;;;;;19.63;100.00;99374.77;1762564;81;21208;-80
2022/08/19 02:50:24;;;;;;;26.97;21.52;;;;;;;19.63;100.00;99373.38;1762583;81;21798;-80
2022/08/19 02:53:31;;;;;;;36.40;27.50;;;;;;;19.62;100.00;99374.48;1762639;81;21192;-80
2022/08/19 02:56:36;;;;;;;43.73;27.85;;;;;;;19.66;100.00;99378.39;1762656;81;21227;-80
2022/08/19 02:59:41;;;;;;;33.05;25.08;;;;;;;19.75;100.00;99373.78;1761134;81;21251;-80
2022/08/19 03:02:48;;;;;;;31.33;25.37;;;;;;;19.90;100.00;99386.44;1761320;81;21247;-79
2022/08/19 03:05:54;;;;;;;41.40;23.32;;;;;;;19.96;100.00;99391.52;1761692;81;21200;-80
2022/08/19 03:08:59;;;;;;;29.92;24.15;;;;;;;19.95;100.00;99393.47;1761176;81;21199;-80
2022/08/19 03:12:06;;;;;;;30.12;26.20;;;;;;;19.97;100.00;99391.80;1761164;81;22167;-80
2022/08/19 03:15:13;;;;;;;41.55;24.63;;;;;;;20.02;100.00;99392.70;1762302;81;21274;-80
2022/08/19 03:18:19;;;;;;;31.25;23.83;;;;;;;20.09;100.00;99388.31;1762607;81;21243;-79
2022/08/19 03:21:31;;;;;;;28.87;22.87;;;;;;;20.23;100.00;99402.62;1762595;81;21248;-80
2022/08/19 03:24:36;;;;;;;26.85;19.90;;;;;;;20.38;100.00;99395.86;1762604;81;21208;-80
2022/08/19 03:27:36;;;;;;;26.80;20.12;;;;;;;20.26;100.00;99401.56;1761441;81;21223;-80
2022/08/19 03:30:34;;;;;;;28.50;21.85;;;;;;;20.38;100.00;99403.64;1761147;81;21239;-80
2022/08/19 03:33:42;;;;;;;28.02;23.22;;;;;;;20.53;100.00;99405.75;1762477;81;21207;-81
2022/08/19 03:36:49;;;;;;;29.10;22.70;;;;;;;20.57;100.00;99413.02;1761326;81;21783;-81
2022/08/19 03:39:54;;;;;;;27.73;22.30;;;;;;;20.66;100.00;99406.72;1762576;81;22459;-80
2022/08/19 03:43:00;;;;;;;31.93;24.32;;;;;;;20.77;100.00;99408.19;1762288;81;21342;-80
2022/08/19 03:46:13;;;;;;;34.45;23.83;;;;;;;20.97;100.00;99409.73;1761237;81;21259;-81
2022/08/19 03:49:18;;;;;;;30.77;21.17;;;;;;;21.20;100.00;99415.46;1762662;81;21176;-80
2022/08/19 03:52:25;;;;;;;29.02;22.50;;;;;;;21.38;100.00;99417.84;1762680;81;21227;-80
2022/08/19 03:55:26;;;;;;;30.20;22.27;;;;;;;21.34;100.00;99429.77;1762500;81;21207;-80
2022/08/19 03:58:24;;;;;;;31.62;23.27;;;;;;;21.34;100.00;99432.55;1762207;81;21207;-80
2022/08/19 04:01:23;;;;;;;32.98;23.92;;;;;;;21.45;100.00;99430.11;1761267;81;21262;-80
2022/08/19 04:04:30;;;;;;;22.48;18.77;;;;;;;21.65;100.00;99428.85;1761977;81;21270;-80
2022/08/19 04:07:36;;;;;;;28.70;23.18;;;;;;;21.84;100.00;99429.22;1762635;81;21192;-80
2022/08/19 04:10:45;;;;;;;28.25;22.13;;;;;;;21.74;100.00;99431.96;1762615;81;21243;-80
2022/08/19 04:13:55;;;;;;;32.25;22.82;;;;;;;21.95;100.00;99421.73;1762098;81;21864;-80
2022/08/19 04:17:00;;;;;;;31.27;22.05;;;;;;;22.17;100.00;99422.41;1761770;81;21290;-80
2022/08/19 04:20:07;;;;;;;29.05;21.05;;;;;;;22.43;100.00;99428.03;1762638;81;21282;-80
2022/08/19 04:23:12;;;;;;;29.30;21.93;;;;;;;22.45;100.00;99431.40;1739981;81;22334;-80
2022/08/19 04:26:27;;;;;;;28.07;21.17;;;;;;;22.62;100.00;99430.57;1762226;81;21200;-80
2022/08/19 04:29:33;;;;;;;23.40;20.10;;;;;;;22.69;100.00;99438.12;1763182;81;21270;-81
2022/08/19 04:32:39;;;;;;;24.85;20.77;;;;;;;22.81;100.00;99442.58;1734491;81;21196;-81
2022/08/19 04:35:48;;;;;;;32.60;19.55;;;;;;;22.87;100.00;99442.88;1735496;82;21199;-80
2022/08/19 04:38:56;;;;;;;25.40;19.45;;;;;;;22.96;100.00;99439.84;1735493;82;21192;-80
2022/08/19 04:45:26;;;;;;;25.23;20.23;;;;;;;23.14;100.00;99440.65;1734074;81;21247;-80
2022/08/19 04:48:33;;;;;;;27.87;20.90;;;;;;;23.23;100.00;99442.32;1735287;82;21192;-80
2022/08/19 04:51:42;;;;;;;26.12;20.12;;;;;;;23.36;99.63;99440.92;1735308;82;21255;-80
2022/08/19 04:54:48;;;;;;;20.85;18.57;;;;;;;23.51;99.17;99454.84;1735154;82;21244;-80
2022/08/19 04:57:54;;;;;;;26.60;21.20;;;;;;;23.55;97.69;99447.58;1734059;82;21271;-80
2022/08/19 05:01:00;;;;;;;25.75;20.68;;;;;;;23.47;97.97;99455.12;1735389;82;21176;-81
2022/08/19 05:04:07;;;;;;;25.60;20.55;;;;;;;23.49;98.36;99449.28;1734838;82;21227;-80
2022/08/19 05:07:14;;;;;;;26.77;21.73;;;;;;;23.42;98.92;99455.13;1734573;82;21751;-80
2022/08/19 05:10:20;;;;;;;26.77;21.75;;;;;;;23.49;99.07;99461.84;1735076;82;21188;-80
2022/08/19 05:13:26;;;;;;;26.42;21.45;;;;;;;23.55;98.73;99452.33;1734636;82;21187;-80
2022/08/19 05:16:32;;;;;;;28.42;22.55;;;;;;;23.56;99.14;99454.83;1734541;82;21283;-80
2022/08/19 05:23:02;;;;;;;33.70;23.70;;;;;;;23.80;99.15;99465.41;1763910;81;21180;-80
2022/08/19 05:26:11;;;;;;;25.32;21.65;;;;;;;24.02;99.32;99468.69;1763870;81;21196;-80
2022/08/19 05:29:19;;;;;;;25.82;21.73;;;;;;;24.25;98.91;99462.16;1780894;80;21188;-80
2022/08/19 05:32:27;;;;;;;26.07;21.25;;;;;;;24.36;97.08;99459.58;1780880;80;21184;-81
2022/08/19 05:35:33;;;;;;;30.25;21.73;;;;;;;24.48;97.59;99454.52;1779379;80;21179;-80
2022/08/19 05:38:38;;;;;;;30.08;22.07;;;;;;;24.65;96.01;99466.14;1779215;80;21834;-81
2022/08/19 05:41:49;;;;;;;24.70;22.00;;;;;;;24.83;94.92;99460.42;1780595;80;21266;-80
2022/08/19 05:44:55;;;;;;;26.57;21.65;;;;;;;25.03;94.40;99465.05;1780565;80;21215;-81
2022/08/19 05:48:01;;;;;;;25.72;21.15;;;;;;;25.22;92.63;99471.63;1779680;80;21239;-80
2022/08/19 05:51:13;;;;;;;25.52;20.32;;;;;;;25.43;90.90;99471.44;1780890;80;21719;-80
2022/08/19 05:54:22;;;;;;;28.47;20.62;;;;;;;25.67;88.63;99480.70;1780882;80;21847;-80
2022/08/19 05:57:21;;;;;;;26.35;19.70;;;;;;;25.81;86.74;99478.63;1780186;80;21238;-80
2022/08/19 06:00:17;;;;;;;24.72;18.42;;;;;;;25.94;84.99;99487.73;1780749;80;21164;-80
2022/08/19 06:03:04;;;;;;;26.90;19.07;;;;;;;25.89;85.81;99483.02;1781065;79;21160;-81
2022/08/19 06:05:59;;;;;;;22.10;18.73;;;;;;;26.02;84.56;99487.62;1802331;79;21177;-80
2022/08/19 06:08:50;;;;;;;33.40;21.52;;;;;;;26.32;84.45;99488.66;1800926;79;21228;-80
2022/08/19 06:11:49;;;;;;;25.25;17.77;;;;;;;26.43;83.70;99490.22;1799763;78;21153;-80
2022/08/19 06:14:56;;;;;;;25.77;17.10;;;;;;;26.54;81.52;99488.13;1793775;78;21165;-80
2022/08/19 06:17:57;;;;;;;21.90;17.85;;;;;;;26.47;80.64;99484.28;1786378;79;22605;-80
2022/08/19 06:21:04;;;;;;;22.37;16.42;;;;;;;26.60;79.84;99493.92;1794579;78;21161;-80
2022/08/19 06:24:12;;;;;;;21.80;17.55;;;;;;;26.73;79.64;99495.16;1792234;78;21162;-80
2022/08/19 06:27:17;;;;;;;21.27;17.20;;;;;;;26.91;79.56;99494.86;1796877;79;21166;-81
2022/08/19 06:30:23;;;;;;;26.15;18.27;;;;;;;27.01;78.06;99494.16;1781666;80;21555;-81
2022/08/19 06:33:28;;;;;;;23.73;17.05;;;;;;;27.17;78.36;99493.36;1784287;80;21705;-80
2022/08/19 06:36:37;;;;;;;22.80;17.95;;;;;;;27.42;77.47;99500.50;1777383;80;21760;-81
2022/08/19 06:39:45;;;;;;;22.32;16.12;;;;;;;27.53;76.01;99501.18;1781367;80;21156;-81
2022/08/19 06:42:52;;;;;;;25.50;15.83;;;;;;;27.50;73.70;99497.58;1794263;79;21819;-81
2022/08/19 06:46:00;;;;;;;20.40;16.15;;;;;;;27.55;73.61;99503.09;1760176;81;21186;-80
2022/08/19 06:49:11;;;;;;;20.20;15.40;;;;;;;27.73;75.09;99501.41;1755696;81;21234;-81
2022/08/19 06:52:17;;;;;;;21.05;15.95;;;;;;;27.78;73.08;99493.45;1732811;81;21239;-81
2022/08/19 06:55:23;;;;;;;24.32;15.00;;;;;;;27.88;71.76;99500.27;1779817;80;21187;-80
2022/08/19 06:58:35;;;;;;;21.20;15.43;;;;;;;27.95;71.52;99503.52;1737920;82;21550;-81
2022/08/19 07:01:46;;;;;;;18.48;13.88;;;;;;;27.85;71.43;99500.88;1757409;81;21197;-81
2022/08/19 07:04:52;;;;;;;19.10;13.95;;;;;;;27.93;70.62;99502.41;1762250;81;21254;-80
2022/08/19 07:07:58;;;;;;;20.68;13.35;;;;;;;28.16;67.77;99502.53;1766137;80;21233;-81
2022/08/19 07:11:05;;;;;;;16.12;11.53;;;;;;;28.24;66.48;99512.48;1717179;82;21208;-81
2022/08/19 07:14:12;;;;;;;15.65;11.05;;;;;;;28.23;66.11;99512.77;1756743;81;21231;-81
2022/08/19 07:17:19;;;;;;;18.67;11.83;;;;;;;28.43;65.45;99515.20;1757561;81;21172;-80
2022/08/19 07:20:20;;;;;;;17.12;11.38;;;;;;;28.63;64.90;99518.14;1757741;81;21374;-80
2022/08/19 07:23:27;;;;;;;15.68;10.90;;;;;;;28.76;64.07;99515.88;1757716;81;21766;-80
2022/08/19 07:26:39;;;;;;;17.23;10.63;;;;;;;28.82;62.61;99517.17;1757751;81;21168;-80
2022/08/19 07:29:46;;;;;;;18.67;10.38;;;;;;;28.90;63.55;99522.05;1758854;80;21235;-80
2022/08/19 07:32:56;;;;;;;11.40;8.93;;;;;;;29.06;61.97;99514.93;1740140;81;21809;-80
2022/08/19 07:36:02;;;;;;;16.60;10.48;;;;;;;29.04;60.82;99521.47;1730902;81;21184;-80
2022/08/19 07:39:11;;;;;;;14.28;9.73;;;;;;;29.04;60.82;99521.47;1765549;81;21791;-80
2022/08/19 07:42:20;;;;;;;15.45;8.90;;;;;;;29.04;61.70;99520.06;1766528;81;21298;-80
2022/08/19 07:45:25;;;;;;;14.73;9.48;;;;;;;29.12;61.35;99523.50;1766955;81;21211;-80
2022/08/19 07:48:36;;;;;;;12.00;9.48;;;;;;;29.26;60.05;99515.83;1767311;81;21191;-80
2022/08/19 07:51:41;;;;;;;;;;;;;;;29.42;60.68;99519.11;1769981;81;21196;-80
2022/08/19 07:54:48;;;;;;;13.80;9.00;;;;;;;29.57;59.73;99523.55;1752936;80;20239;-80
2022/08/19 07:57:53;;;;;;;16.12;7.75;;;;;;;29.67;57.48;99514.82;1736470;82;21193;-80
2022/08/19 08:01:01;;;;;;;13.70;8.05;;;;;;;29.71;57.28;99515.02;1746607;80;21188;-80
2022/08/19 08:10:56;;;;;;;17.80;9.53;;;;;;;29.45;57.18;99502.12;1704384;84;21764;-80
2022/08/19 08:14:04;;;;;;;13.05;7.25;;;;;;;29.12;57.40;99498.73;1736023;81;21343;-80
2022/08/19 08:17:13;;;;;;;9.07;7.20;;;;;;;29.10;58.01;99506.11;1767137;80;21183;-80
2022/08/19 08:20:25;;;;;;;11.22;6.78;;;;;;;29.14;57.85;99511.36;1767163;79;21767;-80
2022/08/19 08:23:31;;;;;;;9.58;7.25;;;;;;;29.41;55.68;99520.84;1759517;81;21539;-80
2022/08/19 08:26:38;;;;;;;12.07;8.20;;;;;;;29.41;55.68;99520.84;1759567;81;21207;-81
2022/08/19 08:29:48;;;;;;;11.48;7.80;;;;;;;29.43;59.50;99521.34;1765737;81;21284;-80
2022/08/19 08:32:53;;;;;;;15.05;7.65;;;;;;;29.61;56.84;99525.98;1769941;79;21173;-80
2022/08/19 08:35:52;;;;;;;8.57;6.70;;;;;;;29.63;55.35;99524.23;1770267;81;21177;-80
2022/08/19 08:38:57;;;;;;;8.75;5.95;;;;;;;29.63;55.35;99524.23;1769622;81;22265;-81
2022/08/19 08:42:18;;;;;;;11.97;7.40;;;;;;;29.49;54.92;99527.09;1728737;81;21166;-80
2022/08/19 08:45:25;;;;;;;10.43;6.78;;;;;;;29.61;52.65;99530.20;1749966;80;22500;-80
2022/08/19 08:48:47;;;;;;;10.15;7.25;;;;;;;29.62;54.41;99516.37;1747986;81;21191;-80
2022/08/19 08:52:13;;;;;;;8.95;7.17;;;;;;;29.62;54.41;99516.37;1750548;81;21193;-80
2022/08/19 08:55:26;;;;;;;12.85;7.37;;;;;;;29.53;54.89;99524.73;1767462;80;21164;-80
2022/08/19 08:58:41;;;;;;;11.18;7.30;;;;;;;29.34;55.23;99521.86;1791983;78;21203;-80
2022/08/19 09:01:48;;;;;;;16.65;6.50;;;;;;;29.19;54.67;99525.89;1784523;79;21179;-80
2022/08/19 09:04:56;;;;;;;10.70;6.40;;;;;;;29.21;54.52;99526.39;1793947;79;21193;-81
2022/08/19 09:08:21;;;;;;;16.45;6.80;;;;;;;29.29;54.42;99520.83;1787352;78;21549;-80
2022/08/19 09:11:53;;;;;;;6.78;6.08;;;;;;;29.40;54.18;99523.39;1776144;79;21179;-80
2022/08/19 09:15:12;;;;;;;10.38;5.83;;;;;;;29.37;53.17;99519.83;1796993;78;21160;-80
2022/08/19 09:18:20;;;;;;;9.03;5.83;;;;;;;29.31;53.23;99526.72;1793839;78;21172;-80
2022/08/19 09:21:28;;;;;;;7.45;5.72;;;;;;;29.13;52.00;99529.41;1779710;79;21174;-80
2022/08/19 09:24:35;;;;;;;11.78;5.92;;;;;;;29.22;51.85;99525.27;1784013;79;21184;-81
2022/08/19 09:27:37;;;;;;;9.58;6.47;;;;;;;29.16;52.11;99520.31;1797840;78;21229;-80
2022/08/19 09:30:47;;;;;;;8.18;6.20;;;;;;;29.25;52.20;99514.17;1789511;78;21183;-80
2022/08/19 09:33:56;;;;;;;10.40;7.08;;;;;;;29.27;51.63;99521.73;1771339;80;21183;-80
2022/08/19 09:37:04;;;;;;;10.55;8.18;;;;;;;29.34;51.81;99516.23;1769489;80;21234;-80
2022/08/19 09:40:13;;;;;;;10.23;7.30;;;;;;;29.26;51.46;99527.09;1774102;80;21226;-80
2022/08/19 09:43:22;;;;;;;22.32;13.28;;;;;;;29.40;51.03;99524.80;1771840;80;21188;-81
2022/08/19 09:46:30;;;;;;;28.23;15.43;;;;;;;29.42;51.55;99519.69;1752458;80;21230;-81
2022/08/19 09:49:37;;;;;;;28.85;14.95;;;;;;;29.42;52.45;99523.92;1780002;80;21206;-80
2022/08/19 09:52:42;;;;;;;35.35;19.00;;;;;;;29.53;51.84;99523.90;1784128;80;21224;-81
2022/08/19 09:55:51;;;;;;;54.70;21.82;;;;;;;29.60;51.69;99520.09;1747473;81;21234;-80
2022/08/19 09:58:57;;;;;;;47.98;26.15;;;;;;;29.70;52.24;99526.04;1775037;80;21219;-80
2022/08/19 10:02:03;;;;;;;39.83;23.00;;;;;;;29.73;52.48;99519.16;1759042;80;21245;-80
2022/08/19 10:08:36;;;;;;;40.73;22.22;;;;;;;29.87;51.96;99523.30;1757942;80;21187;-81
2022/08/19 10:11:44;;;;;;;36.42;20.62;;;;;;;29.80;51.83;99521.53;1758564;81;21629;-80
2022/08/19 10:14:53;;;;;;;37.48;20.55;;;;;;;29.76;52.61;99527.56;1786915;80;21377;-80
2022/08/19 10:17:59;;;;;;;33.70;20.37;;;;;;;30.00;50.94;99530.00;1775284;80;21329;-80
2022/08/19 10:21:26;;;;;;;28.87;18.02;;;;;;;30.26;49.99;99530.16;1768085;80;21270;-80
2022/08/19 10:24:27;;;;;;;28.40;16.90;;;;;;;30.37;49.19;99521.64;1759971;80;21884;-81
2022/08/19 10:27:33;;;;;;;30.15;16.93;;;;;;;30.33;48.76;99524.03;1752199;81;21194;-80
2022/08/19 10:30:40;;;;;;;29.35;14.98;;;;;;;30.25;48.93;99519.46;1769159;81;21227;-82
2022/08/19 10:33:46;;;;;;;27.17;15.10;;;;;;;30.13;48.21;99517.83;1771745;79;21190;-81
2022/08/19 10:36:54;;;;;;;24.50;14.28;;;;;;;30.18;48.16;99513.45;1767140;79;21164;-81
2022/08/19 10:39:54;;;;;;;22.35;12.43;;;;;;;30.36;48.91;99514.34;1779755;79;21209;-80
2022/08/19 10:42:46;;;;;;;22.50;13.48;;;;;;;30.49;48.74;99513.97;1788244;79;21206;-80
2022/08/19 10:45:32;;;;;;;20.32;11.75;;;;;;;30.47;48.61;99519.09;1750332;80;21213;-81
2022/08/19 10:48:27;;;;;;;27.37;15.15;;;;;;;30.49;47.68;99521.03;1712500;81;21211;-81
2022/08/19 10:56:50;;;;;;;22.75;11.68;;;;;;;30.34;47.95;99510.17;1751247;80;21229;-81
2022/08/19 10:57:16;;;;;;;19.75;12.63;;;;;;;30.33;47.69;99509.34;1754754;81;21266;-81
2022/08/19 11:00:08;;;;;;;25.35;12.05;;;;;;;30.18;47.47;99506.98;1754469;80;21244;-81
2022/08/19 11:02:55;;;;;;;26.27;13.48;;;;;;;30.12;48.25;99504.86;1754095;80;21215;-81
2022/08/19 11:05:48;;;;;;;24.63;14.25;;;;;;;30.25;47.57;99506.77;1735581;82;21208;-81
2022/08/19 11:08:37;;;;;;;25.80;15.75;;;;;;;30.13;47.77;99505.14;1734086;82;21760;-81
2022/08/19 11:11:30;;;;;;;29.07;15.98;;;;;;;30.14;48.02;99500.33;1729844;83;21269;-81
2022/08/19 11:14:20;;;;;;;;;;;;;;;30.26;48.67;99497.14;1737185;81;21209;-81
2022/08/19 11:17:15;;;;;;;24.95;14.03;;;;;;;30.35;47.96;99494.35;1785456;80;20254;-81
2022/08/19 11:20:03;;;;;;;36.55;17.20;;;;;;;30.36;46.02;99505.05;1758581;81;21202;-81
2022/08/19 11:22:55;;;;;;;27.48;16.35;;;;;;;30.36;46.11;99496.01;1757824;81;21231;-81
2022/08/19 11:26:01;;;;;;;28.32;16.17;;;;;;;30.38;47.49;99499.91;1758941;81;21273;-81
2022/08/19 11:29:11;;;;;;;27.45;16.35;;;;;;;30.48;47.21;99495.36;1759165;81;21205;-81
2022/08/19 11:32:16;;;;;;;28.52;16.55;;;;;;;30.58;46.94;99495.63;1762417;80;21259;-81
2022/08/19 11:35:23;;;;;;;28.38;16.37;;;;;;;30.74;46.97;99489.81;1805548;79;21263;-81
2022/08/19 11:38:29;;;;;;;29.52;15.80;;;;;;;30.86;47.74;99489.14;1788065;79;21165;-81
2022/08/19 11:41:34;;;;;;;23.10;13.28;;;;;;;30.96;47.58;99491.63;1783717;79;21825;-81
2022/08/19 11:44:40;;;;;;;24.92;14.43;;;;;;;31.09;47.19;99489.81;1795925;79;21218;-81
2022/08/19 11:47:47;;;;;;;28.38;15.75;;;;;;;31.08;46.32;99487.57;1769209;81;21279;-81
2022/08/19 11:50:52;;;;;;;24.90;16.12;;;;;;;31.09;45.94;99477.93;1769776;81;21168;-81
2022/08/19 11:53:57;;;;;;;25.35;14.05;;;;;;;31.17;46.44;99468.63;1778366;79;21175;-81
2022/08/19 11:57:03;;;;;;;16.12;10.00;;;;;;;31.20;46.31;99460.91;1801020;79;21242;-81
2022/08/19 12:00:08;;;;;;;15.50;10.35;;;;;;;31.37;45.27;99457.83;1800867;79;21200;-81
2022/08/19 12:03:14;;;;;;;19.42;11.40;;;;;;;31.39;44.77;99458.34;1794850;79;21282;-81
2022/08/19 12:06:28;;;;;;;14.50;9.68;;;;;;;31.41;44.35;99450.34;1802689;79;21172;-81
2022/08/19 12:09:29;;;;;;;18.02;10.60;;;;;;;31.42;44.68;99438.70;1807923;79;21184;-81
2022/08/19 12:12:42;;;;;;;14.63;10.20;;;;;;;31.48;45.94;99443.61;1769585;81;21250;-81
2022/08/19 12:15:47;;;;;;;13.95;9.83;;;;;;;31.64;45.00;99439.64;1801261;79;21171;-81
2022/08/19 12:18:53;;;;;;;12.25;8.83;;;;;;;31.86;44.89;99442.27;1800246;79;21206;-81
2022/08/19 12:22:00;;;;;;;13.50;8.73;;;;;;;32.05;44.65;99440.42;1799786;79;21191;-81
2022/08/19 12:25:05;;;;;;;15.72;8.45;;;;;;;32.18;43.87;99451.23;1789949;79;21191;-81
2022/08/19 12:28:09;;;;;;;15.38;9.73;;;;;;;32.23;43.76;99453.87;1799843;79;21207;-81
2022/08/19 12:31:17;;;;;;;14.87;9.40;;;;;;;32.31;43.20;99453.82;1799492;79;21895;-81
2022/08/19 12:34:22;;;;;;;11.22;7.03;;;;;;;32.43;43.71;99440.98;1799181;79;21238;-81
2022/08/19 12:37:28;;;;;;;12.82;6.40;;;;;;;32.57;41.82;99435.89;1752929;80;21172;-81
2022/08/19 12:40:33;;;;;;;12.85;6.28;;;;;;;32.66;41.02;99439.48;1779496;80;21172;-81
2022/08/19 12:43:38;;;;;;;9.43;5.05;;;;;;;32.69;40.16;99435.95;1762692;80;21284;-80
2022/08/19 12:46:43;;;;;;;9.85;5.05;;;;;;;32.73;40.02;99446.00;1767748;81;21181;-81
2022/08/19 12:49:51;;;;;;;9.20;4.17;;;;;;;32.73;39.56;99446.83;1766881;81;21232;-81
2022/08/19 12:52:55;;;;;;;12.20;5.75;;;;;;;32.99;38.64;99451.49;1767405;81;21208;-81
2022/08/19 12:56:05;;;;;;;10.40;5.53;;;;;;;33.08;38.33;99445.16;1767468;81;21181;-81
2022/08/19 12:59:11;;;;;;;6.37;5.03;;;;;;;33.02;37.39;99441.69;1768904;81;21176;-81
2022/08/19 13:02:16;;;;;;;9.33;5.60;;;;;;;32.93;37.37;99452.27;1767746;81;21240;-81
2022/08/19 13:05:23;;;;;;;13.80;9.55;;;;;;;32.77;38.03;99442.72;1767436;81;21213;-81
2022/08/19 13:08:28;;;;;;;19.27;10.08;;;;;;;32.63;40.67;99445.83;1763763;81;21220;-80
2022/08/19 13:11:35;;;;;;;13.32;9.50;;;;;;;32.33;42.20;99451.26;1701039;84;21287;-81
2022/08/19 13:14:45;;;;;;;19.57;9.53;;;;;;;31.82;43.05;99466.72;1734450;82;21529;-81
2022/08/19 13:17:52;;;;;;;18.42;9.05;;;;;;;31.42;44.21;99466.13;1735395;82;21184;-81
2022/08/19 13:20:57;;;;;;;13.43;8.75;;;;;;;31.21;44.19;99465.39;1735156;82;21212;-81
2022/08/19 13:24:03;;;;;;;20.60;9.93;;;;;;;31.19;44.59;99469.11;1710365;83;21794;-81
2022/08/19 13:27:08;;;;;;;18.67;9.38;;;;;;;31.02;46.97;99488.33;1729932;83;21793;-81
2022/08/19 13:33:41;;;;;;;35.65;12.55;;;;;;;30.62;49.62;99524.27;1731081;83;21191;-80
2022/08/19 13:36:48;;;;;;;42.30;14.95;;;;;;;30.14;59.56;99511.02;1746862;81;21629;-80
2022/08/19 13:39:54;;;;;;;22.85;10.25;;;;;;;29.35;61.64;99498.17;1761147;81;21228;-79
2022/08/19 13:43:00;;;;;;;16.37;8.75;;;;;;;28.10;64.71;99501.81;1761474;81;21588;-80
2022/08/19 13:46:07;;;;;;;17.07;9.13;;;;;;;28.10;64.71;99501.81;1760810;81;21215;-80
2022/08/19 13:49:12;;;;;;;18.15;9.18;;;;;;;27.40;67.90;99518.81;1761498;81;21208;-79
2022/08/19 13:52:18;;;;;;;26.25;10.55;;;;;;;26.91;69.71;99538.34;1761656;81;21199;-81
2022/08/19 13:55:24;;;;;;;12.78;7.80;;;;;;;25.99;70.88;99524.93;1747721;81;21196;-79
2022/08/19 15:00:21;;;;;;;19.15;13.65;;;;;;;21.76;100.00;99637.64;1788745;79;28186;-76
2022/08/19 15:03:26;;;;;;;17.65;13.65;;;;;;;21.72;100.00;99639.27;1751956;82;21205;-78
2022/08/19 15:06:32;;;;;;;19.30;12.35;;;;;;;21.56;100.00;99629.97;1763412;81;21798;-79
2022/08/19 15:09:39;;;;;;;18.80;12.13;;;;;;;21.63;100.00;99639.75;1780925;80;21191;-78
2022/08/19 15:12:46;;;;;;;19.67;11.80;;;;;;;21.56;100.00;99642.48;1782490;79;21454;-78
2022/08/19 15:15:51;;;;;;;19.20;10.50;;;;;;;21.81;100.00;99652.98;1750306;82;21193;-78
2022/08/19 15:19:02;;;;;;;15.65;9.20;;;;;;;21.49;100.00;99646.86;1781924;80;21183;-78
2022/08/19 15:22:01;;;;;;;11.90;9.35;;;;;;;21.46;100.00;99636.84;1813617;79;21738;-78
2022/08/19 15:25:07;;;;;;;14.28;9.03;;;;;;;21.40;100.00;99630.36;1781067;80;21310;-78
2022/08/19 15:28:15;;;;;;;12.93;9.63;;;;;;;21.32;100.00;99634.48;1780388;80;21216;-78
2022/08/19 15:31:21;;;;;;;16.70;8.98;;;;;;;21.28;100.00;99628.28;1780733;80;21192;-78
2022/08/19 15:34:27;;;;;;;16.57;10.35;;;;;;;21.33;100.00;99631.98;1780626;80;21486;-78
2022/08/19 15:37:33;;;;;;;17.30;9.90;;;;;;;21.32;100.00;99635.03;1780821;80;21779;-78
2022/08/19 15:40:38;;;;;;;19.00;12.07;;;;;;;21.32;100.00;99625.30;1779260;80;21188;-78
2022/08/19 15:43:44;;;;;;;20.68;11.18;;;;;;;21.26;100.00;99621.57;1761895;80;21184;-78